Time;durP1;ratioP1;P1;durP2;ratioP2;P2;SDS_P1;SDS_P2;PMS_P1;PMS_P2;Temp;Humidity;BMP_temperature;BMP_pressure;BME280_temperature;BME280_humidity;BME280_pressure;Samples;Min_cycle;Max_cycle;Signal;HPM_P1;HPM_P2
2022/01/21 00:01:31;;;;;;;4.87;2.20;;;1.10;99.90;;;;;;5091339;28;20663;-60
2022/01/21 00:03:57;;;;;;;6.03;2.57;;;1.10;99.90;;;;;;5091136;28;20229;-60
2022/01/21 00:06:23;;;;;;;9.43;2.53;;;1.10;99.90;;;;;;5088828;28;20196;-61
2022/01/21 00:08:51;;;;;;;5.40;2.57;;;1.20;99.90;;;;;;5091054;28;20608;-61
2022/01/21 00:11:17;;;;;;;7.87;3.30;;;1.10;99.90;;;;;;5090806;28;20329;-61
2022/01/21 00:13:44;;;;;;;7.57;3.23;;;1.20;99.90;;;;;;5090532;28;20215;-61
2022/01/21 00:16:10;;;;;;;5.83;2.60;;;1.10;99.90;;;;;;5090124;28;20206;-60
2022/01/21 00:18:51;;;;;;;6.47;2.30;;;1.10;99.90;;;;;;5090328;28;20271;-61
2022/01/21 00:32:13;;;;;;;11.57;3.10;;;1.20;99.90;;;;;;5092610;28;20191;-60
2022/01/21 00:34:38;;;;;;;8.57;2.67;;;1.20;99.90;;;;;;5093529;28;20184;-61
2022/01/21 00:37:04;;;;;;;9.07;2.87;;;1.20;99.90;;;;;;5092058;28;20184;-60
2022/01/21 00:39:33;;;;;;;5.50;2.33;;;1.30;99.90;;;;;;5093928;28;20229;-60
2022/01/21 00:44:33;;;;;;;7.20;2.60;;;1.30;99.90;;;;;;5090832;28;20521;-60
2022/01/21 00:46:58;;;;;;;6.80;3.30;;;1.20;99.90;;;;;;5091855;28;20183;-60
2022/01/21 00:49:24;;;;;;;4.33;2.67;;;1.20;99.90;;;;;;5092735;28;20666;-60
2022/01/21 00:51:50;;;;;;;6.80;2.22;;;1.30;99.90;;;;;;5094242;28;20543;-60
2022/01/21 00:54:16;;;;;;;6.43;2.03;;;1.30;99.90;;;;;;5094337;28;20183;-60
2022/01/21 00:56:42;;;;;;;5.53;2.20;;;1.30;99.90;;;;;;5094212;28;20184;-60
2022/01/21 00:59:07;;;;;;;7.93;2.50;;;1.20;99.90;;;;;;5093333;28;20231;-60
2022/01/21 01:01:33;;;;;;;6.97;2.30;;;1.20;99.90;;;;;;5093972;28;20215;-60
2022/01/21 01:03:59;;;;;;;9.53;2.23;;;1.20;99.90;;;;;;5093825;28;20203;-60
2022/01/21 01:06:25;;;;;;;11.43;2.60;;;1.20;99.90;;;;;;5093600;28;20220;-60
2022/01/21 01:08:52;;;;;;;6.13;2.30;;;1.20;99.90;;;;;;5092920;28;20183;-60
2022/01/21 01:11:29;;;;;;;5.17;2.03;;;1.20;99.90;;;;;;5093614;28;20187;-60
2022/01/21 01:22:08;;;;;;;6.63;2.07;;;1.20;99.90;;;;;;5093450;28;20536;-60
2022/01/21 01:27:42;;;;;;;4.27;1.80;;;1.30;99.90;;;;;;5093605;28;20267;-60
2022/01/21 01:30:15;;;;;;;5.17;2.73;;;1.30;99.90;;;;;;5093271;28;20192;-60
2022/01/21 01:32:43;;;;;;;4.70;2.00;;;1.30;99.90;;;;;;5093500;28;20176;-60
2022/01/21 01:35:10;;;;;;;6.33;1.97;;;1.30;99.90;;;;;;5086121;28;20181;-60
2022/01/21 01:50:59;;;;;;;15.77;2.80;;;1.20;99.90;;;;;;5093086;28;20178;-60
2022/01/21 01:53:53;;;;;;;6.20;2.43;;;1.10;99.90;;;;;;5091739;28;20233;-60
2022/01/21 01:56:24;;;;;;;5.63;2.27;;;1.00;99.90;;;;;;5077001;28;20714;-60
2022/01/21 01:58:49;;;;;;;9.30;2.60;;;1.00;99.90;;;;;;5091639;28;20279;-61
2022/01/21 02:01:15;;;;;;;6.87;2.50;;;0.90;99.90;;;;;;5092774;28;20310;-60
2022/01/21 02:03:41;;;;;;;3.80;1.87;;;0.80;99.90;;;;;;5092976;28;20576;-60
2022/01/21 02:06:07;;;;;;;7.33;2.30;;;0.70;99.90;;;;;;5092396;28;20203;-60
2022/01/21 02:08:33;;;;;;;7.87;2.57;;;0.70;99.90;;;;;;5091882;28;20267;-60
2022/01/21 02:10:58;;;;;;;8.03;2.80;;;0.60;99.90;;;;;;5092064;28;20540;-60
2022/01/21 02:13:28;;;;;;;7.83;2.13;;;0.60;99.90;;;;;;5087076;28;20222;-60
2022/01/21 02:16:16;;;;;;;7.33;2.20;;;0.60;99.90;;;;;;5091966;28;20212;-61
2022/01/21 02:21:48;;;;;;;7.17;2.53;;;0.60;99.90;;;;;;5089096;28;20617;-60
2022/01/21 02:24:22;;;;;;;6.70;2.57;;;0.70;99.90;;;;;;5091478;28;20180;-60
2022/01/21 02:26:50;;;;;;;9.17;2.53;;;0.70;99.90;;;;;;5083161;28;20184;-60
2022/01/21 02:29:26;;;;;;;7.07;2.27;;;0.70;99.90;;;;;;5091061;28;20196;-60
2022/01/21 02:31:53;;;;;;;5.70;2.40;;;0.80;99.90;;;;;;5091645;28;20188;-61
2022/01/21 02:34:18;;;;;;;9.80;2.57;;;0.80;99.90;;;;;;5091680;28;20225;-60
2022/01/21 02:36:44;;;;;;;7.80;2.37;;;0.90;99.90;;;;;;5091701;28;20191;-60
2022/01/21 02:39:10;;;;;;;7.13;2.33;;;0.90;99.90;;;;;;5091476;28;20192;-60
2022/01/21 02:41:35;;;;;;;4.73;2.40;;;0.90;99.90;;;;;;5091257;28;20212;-60
2022/01/21 02:44:01;;;;;;;7.97;3.03;;;0.90;99.90;;;;;;5091339;28;20200;-60
2022/01/21 02:46:27;;;;;;;9.03;2.63;;;0.90;99.90;;;;;;5090976;28;20678;-60
2022/01/21 02:48:53;;;;;;;7.07;2.47;;;0.80;99.90;;;;;;5091498;28;20266;-61
2022/01/21 02:51:19;;;;;;;9.15;2.85;;;0.80;99.90;;;;;;5091209;28;20191;-60
2022/01/21 02:56:13;;;;;;;5.73;2.40;;;0.70;99.90;;;;;;5090810;28;20275;-60
2022/01/21 02:58:40;;;;;;;5.80;2.50;;;0.70;99.90;;;;;;5090689;28;20723;-61
2022/01/21 03:01:07;;;;;;;7.30;2.70;;;0.70;99.90;;;;;;5091445;28;20211;-61
2022/01/21 03:03:33;;;;;;;5.40;1.93;;;0.70;99.90;;;;;;5091422;28;20184;-60
2022/01/21 03:06:00;;;;;;;8.03;2.10;;;0.60;99.90;;;;;;5090278;28;20192;-60
2022/01/21 03:08:26;;;;;;;6.70;2.67;;;0.60;99.90;;;;;;5090167;28;20510;-60
2022/01/21 03:10:52;;;;;;;5.17;2.43;;;0.60;99.90;;;;;;5090007;28;20192;-61
2022/01/21 03:13:21;;;;;;;5.80;2.53;;;0.50;99.90;;;;;;5091170;28;20338;-60
2022/01/21 03:15:48;;;;;;;5.97;2.27;;;0.50;99.90;;;;;;5090929;28;20192;-60
2022/01/21 03:18:13;;;;;;;5.37;2.30;;;0.40;99.90;;;;;;5090992;28;20184;-61
2022/01/21 03:20:39;;;;;;;6.17;2.20;;;0.40;99.90;;;;;;5091165;28;20211;-61
2022/01/21 03:23:04;;;;;;;4.47;2.23;;;0.40;99.90;;;;;;5091262;28;20191;-60
2022/01/21 03:25:30;;;;;;;5.67;2.20;;;0.30;99.90;;;;;;5091102;28;20230;-60
2022/01/21 03:27:55;;;;;;;9.00;2.50;;;0.30;99.90;;;;;;5090604;28;20180;-60
2022/01/21 03:30:21;;;;;;;6.20;2.30;;;0.30;99.90;;;;;;5091195;28;20199;-60
2022/01/21 03:32:48;;;;;;;6.13;2.20;;;0.20;99.90;;;;;;5091033;28;20518;-60
2022/01/21 03:35:13;;;;;;;6.80;2.33;;;0.20;99.90;;;;;;5091035;28;20604;-60
2022/01/21 03:37:39;;;;;;;4.10;2.47;;;0.20;99.90;;;;;;5090618;28;20274;-60
2022/01/21 03:40:05;;;;;;;7.83;2.63;;;0.20;99.90;;;;;;5091805;28;20432;-60
2022/01/21 03:42:31;;;;;;;6.00;2.63;;;0.20;99.90;;;;;;5091197;28;20192;-60
2022/01/21 03:44:57;;;;;;;4.00;2.00;;;0.20;99.90;;;;;;5089258;28;21539;-60
2022/01/21 03:47:22;;;;;;;8.87;2.70;;;0.20;99.90;;;;;;5089600;28;20184;-60
2022/01/21 03:49:54;;;;;;;9.50;3.33;;;0.20;99.90;;;;;;5090486;28;20180;-60
2022/01/21 03:52:21;;;;;;;5.57;2.47;;;0.20;99.90;;;;;;5090910;28;20188;-60
2022/01/21 03:54:47;;;;;;;7.97;2.60;;;0.20;99.90;;;;;;5091032;28;20241;-61
2022/01/21 03:57:12;;;;;;;10.07;2.57;;;0.10;99.90;;;;;;5090441;28;20187;-60
2022/01/21 03:59:38;;;;;;;5.30;2.43;;;0.20;99.90;;;;;;5092647;28;20578;-60
2022/01/21 04:02:06;;;;;;;6.77;2.70;;;0.10;99.90;;;;;;5094514;28;20624;-60
2022/01/21 04:04:31;;;;;;;4.90;2.13;;;0.20;99.90;;;;;;5094456;28;20188;-60
2022/01/21 04:06:57;;;;;;;8.13;2.90;;;0.20;99.90;;;;;;5094107;28;20529;-60
2022/01/21 04:09:22;;;;;;;6.60;2.73;;;0.20;99.90;;;;;;5094557;28;20651;-60
2022/01/21 04:11:49;;;;;;;9.37;3.87;;;0.10;99.90;;;;;;5094307;28;20181;-60
2022/01/21 04:14:15;;;;;;;10.30;4.27;;;0.20;99.90;;;;;;5093526;28;20227;-60
2022/01/21 04:16:40;;;;;;;8.50;3.20;;;0.20;99.90;;;;;;5094123;28;20211;-60
2022/01/21 04:19:06;;;;;;;5.23;3.13;;;0.20;99.90;;;;;;5094417;28;20188;-60
2022/01/21 04:21:31;;;;;;;7.33;2.90;;;0.20;99.90;;;;;;5094045;28;20218;-60
2022/01/21 04:23:59;;;;;;;11.37;3.13;;;0.20;99.90;;;;;;5093902;28;20184;-60
2022/01/21 04:26:25;;;;;;;6.83;2.87;;;0.20;99.90;;;;;;5094207;28;20169;-60
2022/01/21 04:28:50;;;;;;;11.87;4.47;;;0.20;99.90;;;;;;5094068;28;20184;-60
2022/01/21 04:31:16;;;;;;;13.97;4.77;;;0.20;99.90;;;;;;5094097;28;20233;-60
2022/01/21 04:33:42;;;;;;;21.90;6.60;;;0.20;99.90;;;;;;5093736;28;20274;-60
2022/01/21 04:36:07;;;;;;;18.93;6.50;;;0.10;99.90;;;;;;5077483;28;20586;-60
2022/01/21 04:38:33;;;;;;;21.27;6.67;;;0.20;99.90;;;;;;5093928;28;20202;-60
2022/01/21 04:41:16;;;;;;;19.07;6.40;;;0.20;99.90;;;;;;5090826;28;20659;-60
2022/01/21 04:49:10;;;;;;;14.30;5.70;;;0.10;99.90;;;;;;5093151;28;20594;-61
2022/01/21 04:51:48;;;;;;;14.45;6.28;;;0.10;99.90;;;;;;5093434;28;20176;-61
2022/01/21 04:54:13;;;;;;;13.50;4.17;;;0.10;99.90;;;;;;5093080;28;20199;-63
2022/01/21 04:56:39;;;;;;;11.63;4.10;;;0.10;99.90;;;;;;5094187;28;20184;-62
2022/01/21 04:59:05;;;;;;;14.37;5.93;;;0.10;99.90;;;;;;5094182;28;20223;-63
2022/01/21 05:01:30;;;;;;;20.60;7.37;;;0.10;99.90;;;;;;5093265;28;20587;-62
2022/01/21 05:03:56;;;;;;;34.47;11.43;;;0.10;99.90;;;;;;5092960;28;20187;-61
2022/01/21 05:06:21;;;;;;;44.53;14.40;;;0.10;99.90;;;;;;5093605;28;20216;-60
2022/01/21 05:08:55;;;;;;;26.20;10.03;;;0.10;99.90;;;;;;5093667;28;20187;-59
2022/01/21 05:11:21;;;;;;;14.90;6.20;;;0.10;99.90;;;;;;5093527;28;20176;-61
2022/01/21 05:13:58;;;;;;;16.30;4.97;;;0.10;99.90;;;;;;5093618;28;20214;-63
2022/01/21 05:18:52;;;;;;;6.57;3.03;;;0.00;99.90;;;;;;5093415;28;20271;-60
2022/01/21 05:21:18;;;;;;;11.03;3.37;;;0.00;99.90;;;;;;5093099;28;20292;-60
2022/01/21 05:23:43;;;;;;;8.43;3.00;;;0.00;99.90;;;;;;5092981;28;20426;-60
2022/01/21 05:26:11;;;;;;;11.83;3.57;;;0.00;99.90;;;;;;5092903;28;20188;-60
2022/01/21 05:28:37;;;;;;;9.43;3.23;;;0.00;99.90;;;;;;5093171;28;20180;-61
2022/01/21 05:31:02;;;;;;;6.20;2.90;;;0.10;99.90;;;;;;5093621;28;20666;-61
2022/01/21 05:33:28;;;;;;;8.63;3.00;;;0.10;99.90;;;;;;5092495;28;20776;-61
2022/01/21 05:35:53;;;;;;;6.47;3.00;;;0.10;99.90;;;;;;5093510;28;20186;-61
2022/01/21 05:38:19;;;;;;;6.60;2.73;;;0.00;99.90;;;;;;5092384;28;20179;-61
2022/01/21 05:40:46;;;;;;;6.87;3.37;;;0.00;99.90;;;;;;5093906;28;20204;-61
2022/01/21 05:43:12;;;;;;;7.47;2.97;;;-0.10;99.90;;;;;;5093971;28;20180;-61
2022/01/21 05:48:22;;;;;;;8.93;3.40;;;-0.10;99.90;;;;;;5093864;28;20175;-61
2022/01/21 05:50:47;;;;;;;11.27;3.13;;;0.00;99.90;;;;;;5093792;28;20537;-61
2022/01/21 05:53:13;;;;;;;9.07;2.87;;;0.10;99.90;;;;;;5093483;28;20225;-61
2022/01/21 05:55:42;;;;;;;8.70;3.40;;;0.10;99.90;;;;;;5093638;28;20318;-61
2022/01/21 05:58:08;;;;;;;12.03;3.93;;;0.20;99.90;;;;;;5093475;28;20180;-61
2022/01/21 06:00:36;;;;;;;8.73;3.90;;;0.20;99.90;;;;;;5093379;28;20626;-61
2022/01/21 06:03:02;;;;;;;13.67;4.47;;;0.30;99.90;;;;;;5093496;28;20683;-61
2022/01/21 06:05:31;;;;;;;8.53;4.17;;;0.30;99.90;;;;;;5093609;28;20191;-61
2022/01/21 06:07:56;;;;;;;6.97;3.77;;;0.30;99.90;;;;;;5093636;28;20184;-61
2022/01/21 06:10:22;;;;;;;8.37;3.17;;;0.40;99.90;;;;;;5093647;28;20241;-61
2022/01/21 06:12:47;;;;;;;8.13;3.80;;;0.30;99.90;;;;;;5093440;28;20183;-61
2022/01/21 06:15:13;;;;;;;14.63;3.80;;;0.30;99.90;;;;;;5093172;28;20172;-61
2022/01/21 06:17:38;;;;;;;12.87;3.73;;;0.30;99.90;;;;;;5093428;28;20465;-61
2022/01/21 06:20:04;;;;;;;10.40;3.73;;;0.30;99.90;;;;;;5093060;28;20208;-61
2022/01/21 06:22:31;;;;;;;6.73;3.33;;;0.30;99.90;;;;;;5092357;28;20291;-60
2022/01/21 06:24:56;;;;;;;11.10;3.37;;;0.40;99.90;;;;;;5093183;28;20168;-61
2022/01/21 06:27:26;;;;;;;7.07;2.97;;;0.40;99.90;;;;;;5093183;28;20616;-61
2022/01/21 06:29:53;;;;;;;8.70;3.37;;;0.40;99.90;;;;;;5092987;28;20172;-61
2022/01/21 06:32:18;;;;;;;9.93;4.10;;;0.50;99.90;;;;;;5093050;28;20264;-61
2022/01/21 06:34:44;;;;;;;9.60;4.00;;;0.50;99.90;;;;;;5093003;28;20270;-61
2022/01/21 06:37:09;;;;;;;7.30;3.43;;;0.50;99.90;;;;;;5092856;28;20212;-61
2022/01/21 06:39:35;;;;;;;8.60;3.33;;;0.60;99.90;;;;;;5093139;28;20187;-61
2022/01/21 06:42:01;;;;;;;6.87;3.23;;;0.60;99.90;;;;;;5092889;28;20200;-61
2022/01/21 06:44:26;;;;;;;7.27;3.20;;;0.60;99.90;;;;;;5092816;28;20675;-61
2022/01/21 06:46:52;;;;;;;8.93;3.10;;;0.60;99.90;;;;;;5092723;28;20175;-61
2022/01/21 06:49:17;;;;;;;10.00;3.60;;;0.60;99.90;;;;;;5092777;28;20207;-61
2022/01/21 06:51:43;;;;;;;6.90;3.70;;;0.60;99.90;;;;;;5092718;28;20176;-61
2022/01/21 06:54:09;;;;;;;12.93;3.90;;;0.60;99.90;;;;;;5092588;28;20180;-61
2022/01/21 06:56:34;;;;;;;9.67;3.70;;;0.60;99.90;;;;;;5092672;28;20214;-61
2022/01/21 06:59:00;;;;;;;10.57;3.57;;;0.60;99.90;;;;;;5092389;28;20730;-61
2022/01/21 07:01:25;;;;;;;9.37;3.60;;;0.60;99.90;;;;;;5092578;28;20219;-61
2022/01/21 07:03:51;;;;;;;9.40;3.17;;;0.60;99.90;;;;;;5092501;28;20175;-61
2022/01/21 07:06:16;;;;;;;11.17;3.43;;;0.60;99.90;;;;;;5092777;28;20202;-61
2022/01/21 07:08:42;;;;;;;11.47;3.53;;;0.60;99.90;;;;;;5092526;28;20180;-61
2022/01/21 07:11:07;;;;;;;8.10;3.10;;;0.70;99.90;;;;;;5092471;28;20173;-61
2022/01/21 07:13:34;;;;;;;6.73;3.63;;;0.70;99.90;;;;;;5092446;28;20687;-61
2022/01/21 07:15:59;;;;;;;11.13;3.63;;;0.70;99.90;;;;;;5092366;28;20654;-61
2022/01/21 07:18:25;;;;;;;11.60;4.27;;;0.70;99.90;;;;;;5092449;28;20168;-61
2022/01/21 07:20:51;;;;;;;12.27;4.17;;;0.70;99.90;;;;;;5092273;28;20605;-61
2022/01/21 07:23:16;;;;;;;9.83;4.27;;;0.70;99.90;;;;;;5092276;28;20721;-61
2022/01/21 07:25:42;;;;;;;13.47;4.33;;;0.70;99.90;;;;;;5092340;28;20275;-61
2022/01/21 07:28:09;;;;;;;10.63;4.23;;;0.70;99.90;;;;;;5092216;28;20211;-61
2022/01/21 07:30:34;;;;;;;9.57;3.17;;;0.70;99.90;;;;;;5092229;28;20264;-61
2022/01/21 07:33:00;;;;;;;5.67;3.57;;;0.60;99.90;;;;;;5094100;28;20184;-61
2022/01/21 07:35:25;;;;;;;6.17;3.40;;;0.60;99.90;;;;;;5096421;28;20175;-61
2022/01/21 07:37:51;;;;;;;10.33;4.10;;;0.60;99.90;;;;;;5096067;28;20191;-61
2022/01/21 07:40:16;;;;;;;10.40;4.33;;;0.60;99.90;;;;;;5096132;28;20243;-61
2022/01/21 07:42:42;;;;;;;12.47;4.97;;;0.60;99.90;;;;;;5096263;28;20242;-61
2022/01/21 07:45:08;;;;;;;10.10;4.47;;;0.60;99.90;;;;;;5094835;28;20263;-61
2022/01/21 07:47:33;;;;;;;7.73;3.70;;;0.70;99.90;;;;;;5096111;28;20290;-61
2022/01/21 07:49:59;;;;;;;9.40;3.80;;;0.70;99.90;;;;;;5096104;28;20393;-61
2022/01/21 07:52:24;;;;;;;15.93;6.77;;;0.70;99.90;;;;;;5096135;28;20226;-61
2022/01/21 07:54:50;;;;;;;21.60;7.33;;;0.70;99.90;;;;;;5096009;28;20274;-61
2022/01/21 07:57:16;;;;;;;18.73;5.97;;;0.70;99.90;;;;;;5094703;28;20196;-61
2022/01/21 07:59:41;;;;;;;15.83;5.57;;;0.70;99.90;;;;;;5095879;28;20228;-61
2022/01/21 08:02:07;;;;;;;17.80;6.43;;;0.60;99.90;;;;;;5095865;28;20211;-61
2022/01/21 08:04:32;;;;;;;18.13;6.60;;;0.60;99.90;;;;;;5094527;28;20220;-61
2022/01/21 08:06:58;;;;;;;12.50;5.20;;;0.70;99.90;;;;;;5095771;28;20204;-61
2022/01/21 08:09:25;;;;;;;15.43;5.40;;;0.80;99.90;;;;;;5095741;28;20195;-61
2022/01/21 08:11:52;;;;;;;18.10;5.07;;;0.90;99.90;;;;;;5095562;28;20572;-61
2022/01/21 08:14:17;;;;;;;12.00;4.17;;;0.90;99.90;;;;;;5095578;28;20180;-61
2022/01/21 08:16:43;;;;;;;14.60;4.63;;;0.90;99.90;;;;;;5095667;28;20172;-61
2022/01/21 08:19:09;;;;;;;12.33;5.27;;;0.90;99.90;;;;;;5095411;28;20638;-61
2022/01/21 08:21:34;;;;;;;12.70;4.93;;;0.90;99.90;;;;;;5095422;28;20693;-61
2022/01/21 08:24:00;;;;;;;9.50;4.10;;;0.90;99.90;;;;;;5095422;28;20180;-61
2022/01/21 08:26:28;;;;;;;9.40;4.67;;;0.80;99.90;;;;;;5095424;28;20172;-61
2022/01/21 08:28:54;;;;;;;12.30;4.80;;;0.80;99.90;;;;;;5094067;28;20230;-61
2022/01/21 08:31:20;;;;;;;9.23;4.43;;;0.80;99.90;;;;;;5095460;28;20636;-61
2022/01/21 08:33:46;;;;;;;7.60;3.63;;;0.80;99.90;;;;;;5095380;28;20176;-61
2022/01/21 08:36:11;;;;;;;12.60;3.80;;;0.80;99.90;;;;;;5093180;28;20192;-61
2022/01/21 08:38:38;;;;;;;11.17;4.20;;;0.80;99.90;;;;;;5095134;28;20579;-62
2022/01/21 08:41:04;;;;;;;8.27;4.10;;;0.80;99.90;;;;;;5093712;28;20207;-61
2022/01/21 08:43:30;;;;;;;10.20;4.93;;;0.90;99.90;;;;;;5093336;28;20168;-61
2022/01/21 08:45:55;;;;;;;9.60;4.70;;;1.00;99.90;;;;;;5094243;28;20176;-61
2022/01/21 08:48:21;;;;;;;10.43;4.50;;;1.10;99.90;;;;;;5094944;28;20187;-61
2022/01/21 08:50:46;;;;;;;11.63;4.10;;;1.20;99.90;;;;;;5094866;28;20176;-61
2022/01/21 08:55:57;;;;;;;11.57;4.00;;;1.30;99.90;;;;;;5095243;28;20259;-62
2022/01/21 08:58:22;;;;;;;8.10;3.90;;;1.40;99.90;;;;;;5094866;28;20168;-61
2022/01/21 09:00:48;;;;;;;14.37;4.63;;;1.50;99.90;;;;;;5094567;28;20265;-61
2022/01/21 09:03:13;;;;;;;7.60;4.27;;;1.50;99.90;;;;;;5094652;28;20176;-62
2022/01/21 09:05:39;;;;;;;8.87;4.37;;;1.60;99.90;;;;;;5094752;28;20253;-61
2022/01/21 09:08:05;;;;;;;19.60;4.97;;;1.60;99.90;;;;;;5094529;28;20266;-62
2022/01/21 09:10:30;;;;;;;8.40;4.00;;;1.70;99.90;;;;;;5094444;28;20179;-62
2022/01/21 09:12:56;;;;;;;14.03;5.00;;;1.70;99.90;;;;;;5094520;28;20179;-62
2022/01/21 09:15:25;;;;;;;10.00;4.50;;;1.60;99.90;;;;;;5094451;28;20180;-61
2022/01/21 09:17:51;;;;;;;9.50;4.33;;;1.60;99.90;;;;;;5094332;28;20176;-61
2022/01/21 09:20:17;;;;;;;16.30;5.13;;;1.60;99.90;;;;;;5094123;28;20579;-61
2022/01/21 09:22:43;;;;;;;9.77;4.63;;;1.60;99.90;;;;;;5094344;28;20168;-62
2022/01/21 09:25:09;;;;;;;11.83;5.20;;;1.60;99.90;;;;;;5094399;28;20236;-61
2022/01/21 09:27:35;;;;;;;12.27;5.27;;;1.60;99.90;;;;;;5094321;28;20635;-61
2022/01/21 09:30:02;;;;;;;8.00;4.10;;;1.60;99.90;;;;;;5094176;28;20218;-61
2022/01/21 09:32:27;;;;;;;10.43;4.13;;;1.70;99.90;;;;;;5094154;28;20184;-61
2022/01/21 09:34:53;;;;;;;7.83;4.57;;;1.80;99.90;;;;;;5093943;28;20237;-61
2022/01/21 09:37:18;;;;;;;7.47;3.67;;;1.90;99.90;;;;;;5094104;28;20239;-61
2022/01/21 09:39:44;;;;;;;6.37;3.83;;;2.00;99.90;;;;;;5094009;28;20548;-62
2022/01/21 09:42:13;;;;;;;13.67;3.63;;;2.10;99.90;;;;;;5093939;28;20245;-62
2022/01/21 09:44:39;;;;;;;8.63;3.30;;;2.20;99.90;;;;;;5092622;28;20197;-62
2022/01/21 09:47:05;;;;;;;8.27;2.97;;;2.40;99.90;;;;;;5093851;28;20180;-62
2022/01/21 09:49:33;;;;;;;11.73;3.60;;;2.50;99.90;;;;;;5093822;28;20173;-61
2022/01/21 09:52:11;;;;;;;4.70;2.97;;;2.60;99.90;;;;;;5093684;28;20184;-60
2022/01/21 09:54:39;;;;;;;9.48;3.50;;;2.70;99.90;;;;;;5093783;28;20639;-61
2022/01/21 09:57:07;;;;;;;8.65;4.00;;;2.90;99.90;;;;;;5093495;28;20627;-61
2022/01/21 09:59:35;;;;;;;9.25;3.97;;;3.10;99.90;;;;;;5093317;28;20258;-61
2022/01/21 10:02:05;;;;;;;10.80;3.83;;;3.20;99.90;;;;;;5093417;28;20265;-61
2022/01/21 10:04:36;;;;;;;7.03;3.30;;;3.20;99.90;;;;;;5093349;28;20178;-61
2022/01/21 10:07:03;;;;;;;11.85;3.63;;;3.20;99.90;;;;;;5093303;28;20187;-61
2022/01/21 10:09:29;;;;;;;8.25;3.10;;;3.10;99.90;;;;;;5093466;28;20190;-61
2022/01/21 10:11:57;;;;;;;9.45;3.33;;;3.00;99.90;;;;;;5093467;28;20259;-61
2022/01/21 10:14:27;;;;;;;6.20;3.00;;;3.00;99.90;;;;;;5093364;28;20245;-62
2022/01/21 10:16:54;;;;;;;8.15;3.65;;;3.00;99.90;;;;;;5093151;28;20177;-61
2022/01/21 10:19:22;;;;;;;11.05;3.65;;;3.00;99.90;;;;;;5093177;28;20172;-62
2022/01/21 10:22:01;;;;;;;11.30;3.72;;;3.00;99.90;;;;;;5093085;28;20212;-61
2022/01/21 10:24:27;;;;;;;11.82;5.03;;;3.00;99.90;;;;;;5093368;28;20618;-62
2022/01/21 10:26:56;;;;;;;8.47;3.87;;;3.00;99.90;;;;;;5093235;28;20183;-62
2022/01/21 10:29:22;;;;;;;8.48;3.83;;;3.10;99.90;;;;;;5093073;28;20886;-61
2022/01/21 10:31:58;;;;;;;7.83;4.10;;;3.00;99.90;;;;;;5093044;28;20172;-61
2022/01/21 10:34:29;;;;;;;7.20;3.27;;;3.00;99.90;;;;;;5092962;28;20179;-61
2022/01/21 10:37:03;;;;;;;9.60;3.45;;;2.90;99.90;;;;;;5091654;28;20172;-62
2022/01/21 10:39:31;;;;;;;7.10;3.30;;;2.90;99.90;;;;;;5092942;28;20199;-61
2022/01/21 10:41:58;;;;;;;6.45;3.47;;;2.90;99.90;;;;;;5092851;28;20264;-61
2022/01/21 10:44:27;;;;;;;9.73;4.80;;;2.90;99.90;;;;;;5093054;28;20623;-61
2022/01/21 10:47:02;;;;;;;6.70;3.28;;;2.90;99.90;;;;;;5092703;28;20184;-61
2022/01/21 10:49:28;;;;;;;9.30;3.42;;;3.00;99.90;;;;;;5092709;28;20277;-61
2022/01/21 10:51:55;;;;;;;11.27;3.20;;;3.00;99.90;;;;;;5092886;28;20262;-61
2022/01/21 10:54:30;;;;;;;7.18;2.83;;;2.90;99.90;;;;;;5092732;28;20317;-62
2022/01/21 10:57:04;;;;;;;9.27;3.72;;;2.80;99.90;;;;;;5092558;28;20179;-61
2022/01/21 10:59:58;;;;;;;10.67;3.27;;;2.80;99.90;;;;;;5092291;28;20234;-62
2022/01/21 11:02:39;;;;;;;8.20;3.10;;;2.80;99.90;;;;;;5092552;28;20241;-62
2022/01/21 11:05:17;;;;;;;11.77;3.40;;;2.80;99.90;;;;;;5092483;28;20522;-61
2022/01/21 11:07:49;;;;;;;8.90;3.40;;;2.80;99.90;;;;;;5092156;28;20172;-61
2022/01/21 11:10:36;;;;;;;7.45;2.78;;;2.80;99.90;;;;;;5092434;28;20176;-61
2022/01/21 11:13:12;;;;;;;9.23;2.87;;;2.90;99.90;;;;;;5092425;28;20635;-61
2022/01/21 11:15:43;;;;;;;7.70;3.20;;;2.90;99.90;;;;;;5092615;28;20172;-61
2022/01/21 11:18:13;;;;;;;8.77;3.33;;;3.00;99.90;;;;;;5092377;28;20184;-61
2022/01/21 11:20:41;;;;;;;10.02;3.80;;;2.90;99.90;;;;;;5092312;28;20299;-61
2022/01/21 11:23:08;;;;;;;11.50;2.93;;;2.90;99.90;;;;;;5092270;28;20176;-61
2022/01/21 11:25:48;;;;;;;9.57;3.27;;;2.90;99.90;;;;;;5092260;28;20180;-61
2022/01/21 11:28:24;;;;;;;11.45;3.35;;;2.80;99.90;;;;;;5092081;28;20269;-61
2022/01/21 11:30:52;;;;;;;11.67;3.30;;;2.80;99.90;;;;;;5092265;28;20195;-61
2022/01/21 11:33:18;;;;;;;8.23;3.33;;;2.80;99.90;;;;;;5092339;28;20184;-61
2022/01/21 11:35:43;;;;;;;9.03;3.33;;;2.90;99.90;;;;;;5092332;28;20172;-61
2022/01/21 11:38:11;;;;;;;10.87;3.40;;;3.00;99.90;;;;;;5092105;28;20739;-61
2022/01/21 11:40:38;;;;;;;6.53;3.27;;;3.10;99.90;;;;;;5092157;28;20219;-61
2022/01/21 11:43:06;;;;;;;8.70;3.45;;;3.10;99.90;;;;;;5092140;28;20172;-61
2022/01/21 11:46:04;;;;;;;5.45;3.30;;;3.10;99.90;;;;;;5092136;28;20255;-61
2022/01/21 11:50:51;;;;;;;11.75;3.03;;;3.20;99.90;;;;;;5090915;28;20184;-61
2022/01/21 11:53:45;;;;;;;8.10;3.03;;;3.20;99.90;;;;;;5092090;28;20241;-61
2022/01/21 11:56:48;;;;;;;8.82;2.80;;;3.10;99.90;;;;;;5091972;28;20180;-61
2022/01/21 12:02:26;;;;;;;10.52;2.90;;;3.20;99.90;;;;;;5086930;28;20691;-62
2022/01/21 12:05:07;;;;;;;7.00;2.58;;;3.40;99.90;;;;;;5090713;28;20230;-61
2022/01/21 12:07:44;;;;;;;8.73;2.60;;;3.40;99.90;;;;;;5092013;28;20175;-61
2022/01/21 12:10:21;;;;;;;8.05;2.20;;;3.30;99.90;;;;;;5091905;28;20188;-61
2022/01/21 12:18:08;;;;;;;12.95;4.10;;;3.50;99.90;;;;;;5092012;28;20671;-61
2022/01/21 12:20:35;;;;;;;10.52;3.10;;;3.60;99.90;;;;;;5094477;28;20220;-62
2022/01/21 12:23:14;;;;;;;8.57;2.83;;;3.70;99.90;;;;;;5095463;28;20169;-62
2022/01/21 12:26:10;;;;;;;5.80;2.70;;;3.70;99.90;;;;;;5095593;28;20176;-62
2022/01/21 12:28:57;;;;;;;6.07;2.63;;;3.70;99.90;;;;;;5095449;28;20168;-61
2022/01/21 12:32:00;;;;;;;7.43;2.90;;;3.60;99.90;;;;;;5095138;28;20184;-61
2022/01/21 12:34:27;;;;;;;8.25;2.42;;;3.60;99.90;;;;;;5092637;28;20195;-62
2022/01/21 12:36:57;;;;;;;7.38;3.13;;;3.60;99.90;;;;;;5095250;28;20205;-62
2022/01/21 12:39:43;;;;;;;8.93;3.10;;;3.60;99.90;;;;;;5095322;28;20185;-61
2022/01/21 12:42:21;;;;;;;18.63;3.15;;;3.70;99.90;;;;;;5094956;28;20550;-62
2022/01/21 12:44:48;;;;;;;11.93;3.03;;;3.70;99.90;;;;;;5095148;28;20218;-61
2022/01/21 12:47:38;;;;;;;6.03;3.05;;;3.70;99.90;;;;;;5094958;28;20647;-61
2022/01/21 12:50:19;;;;;;;8.98;3.92;;;3.80;99.90;;;;;;5095005;28;20176;-61
2022/01/21 12:52:48;;;;;;;7.38;2.80;;;3.90;99.90;;;;;;5095040;28;20174;-62
2022/01/21 12:58:06;;;;;;;7.00;2.65;;;4.00;99.90;;;;;;5094861;28;20191;-62
2022/01/21 13:00:32;;;;;;;8.63;2.55;;;4.00;99.90;;;;;;5094470;28;20223;-61
2022/01/21 13:03:06;;;;;;;5.10;2.45;;;4.00;99.90;;;;;;5093571;28;20207;-62
2022/01/21 13:05:40;;;;;;;5.20;2.13;;;4.00;99.90;;;;;;5094683;28;20175;-61
2022/01/21 13:08:33;;;;;;;8.40;2.92;;;4.00;99.90;;;;;;5093635;28;20172;-62
2022/01/21 13:11:16;;;;;;;7.53;2.50;;;3.90;99.90;;;;;;5094648;28;20199;-62
2022/01/21 13:13:51;;;;;;;4.78;2.75;;;3.90;99.90;;;;;;5093508;28;20183;-61
2022/01/21 13:16:31;;;;;;;6.53;2.40;;;3.90;99.90;;;;;;5078195;28;20176;-61
2022/01/21 13:19:04;;;;;;;7.97;2.47;;;3.90;99.90;;;;;;5094569;28;20172;-61
2022/01/21 13:21:34;;;;;;;7.70;2.92;;;4.00;99.90;;;;;;5094326;28;20215;-61
2022/01/21 13:24:10;;;;;;;7.20;2.33;;;3.90;99.90;;;;;;5094411;28;20204;-62
2022/01/21 13:26:36;;;;;;;7.28;2.85;;;3.90;99.90;;;;;;5094462;28;20538;-61
2022/01/21 13:29:10;;;;;;;10.70;2.80;;;3.90;99.90;;;;;;5094321;28;20196;-63
2022/01/21 13:31:48;;;;;;;10.40;3.70;;;3.80;99.90;;;;;;5092645;28;20207;-62
2022/01/21 13:34:40;;;;;;;19.95;6.97;;;3.90;99.90;;;;;;5094209;28;20184;-61
2022/01/21 13:37:08;;;;;;;8.90;3.25;;;3.90;99.90;;;;;;5091974;28;20210;-62
2022/01/21 13:39:36;;;;;;;7.90;2.58;;;3.90;99.90;;;;;;5094307;28;20182;-62
2022/01/21 13:42:09;;;;;;;8.68;3.13;;;4.00;99.90;;;;;;5093986;28;20303;-62
2022/01/21 13:44:42;;;;;;;9.35;2.65;;;4.00;99.90;;;;;;5092874;28;20184;-62
2022/01/21 13:47:25;;;;;;;7.38;2.90;;;4.00;99.90;;;;;;5093932;28;20172;-62
2022/01/21 13:49:52;;;;;;;8.38;2.80;;;3.90;99.90;;;;;;5093817;28;20658;-62
2022/01/21 13:52:18;;;;;;;8.70;2.85;;;3.90;99.90;;;;;;5093800;28;20258;-63
2022/01/21 13:54:47;;;;;;;6.95;2.63;;;3.90;99.90;;;;;;5092642;28;20592;-60
2022/01/21 13:57:13;;;;;;;8.00;3.00;;;3.90;99.90;;;;;;5093435;28;20219;-61
2022/01/21 13:59:44;;;;;;;7.68;2.90;;;3.90;99.90;;;;;;5093556;28;20224;-61
2022/01/21 14:02:14;;;;;;;8.30;2.53;;;3.90;99.90;;;;;;5093372;28;20579;-62
2022/01/21 14:04:53;;;;;;;14.95;3.58;;;3.90;99.90;;;;;;5093617;28;20259;-63
2022/01/21 14:07:31;;;;;;;4.28;2.65;;;3.90;99.90;;;;;;5093690;28;20589;-62
2022/01/21 14:09:58;;;;;;;8.07;3.20;;;4.00;99.90;;;;;;5093326;28;20219;-62
2022/01/21 14:12:25;;;;;;;13.23;3.03;;;4.00;99.90;;;;;;5092326;28;20643;-62